• Join FlightAware (Why Join?)
  • Login
  • US Flag 
03:21PM EST


 

Airport Tracker/Info


-or-


 

Live Flight TrackerFlight Track Log ✈ N510SR ✈ 18-Jun-2013 ✈ KTEB - KABE

Flight Track Log - Related Links

Times and Time Zones

All times are in EDT time to prevent confusion due to time zone crossing. See the N510SR flight status page for this flight to view local times or setup timezone preferences in your user account.

Time Position Orientation Groundspeed Altitude Reporting Facility
EDT Latitude Longitude Course Direction KTS MPH feet Rate Location/Type
10:34PM 40.9333 -74.1000 288° West 257 296 4,100  Level New York TRACON
10:35PM 40.9167 -74.2000 258° West 267 307 4,100  Level New York TRACON
10:36PM 40.9000 -74.3000 258° West 274 315 4,100  Level New York TRACON
10:37PM 40.8667 -74.4167 249° West 271 312 4,100  Level New York TRACON
10:38PM 40.7054 -74.3988 242° Southwest  Level FlightAware Approximate
10:38PM 40.8667 -74.4833 270° West 273 314 4,100  Level New York TRACON
10:40PM 40.8402 -74.6040 254° West  Level Estimated
10:47PM 40.7189 -75.1476 254° West  Level Estimated
10:48PM 40.7014 -75.2251 253° West  Level Estimated
10:49PM 40.6838 -75.3025 253° West  Level Estimated
10:50PM 40.6662 -75.3799 253° West  Level Estimated
10:51PM 40.6524 -75.4404 253° West  Level Estimated
10:52PM 40.6524 -75.4404 66° East  Level Estimated
10:53PM 40.6524 -75.4404 66° East  Level Estimated
10:54PM 40.6524 -75.4404 66° East  Level Estimated
10:55PM 40.6524 -75.4404 66° East  Level Estimated
10:56PM 40.6524 -75.4404 66° East  Level Estimated
10:57PM 40.6524 -75.4404 66° East  Level Estimated
10:58PM 40.6524 -75.4404 66° East  Level Estimated
10:59PM 40.6524 -75.4404 66° East  Level Estimated
11:00PM 40.6524 -75.4404 66° East  Level Estimated
11:01PM 40.6524 -75.4404 66° East  Level Estimated
11:02PM 40.6524 -75.4404 66° East  Level Estimated
11:03PM 40.6524 -75.4404 66° East  Level Estimated